sensor_id;sensor_type;location;lat;lon;timestamp;temperature;humidity
5711;DHT22;61291;52.524;13.422;2023-02-01T00:01:22;4.30;99.90
5711;DHT22;61291;52.524;13.422;2023-02-01T00:03:48;4.50;99.90
5711;DHT22;61291;52.524;13.422;2023-02-01T00:06:13;4.60;99.90
5711;DHT22;61291;52.524;13.422;2023-02-01T00:08:39;4.70;99.90
5711;DHT22;61291;52.524;13.422;2023-02-01T00:11:10;4.60;99.90
5711;DHT22;61291;52.524;13.422;2023-02-01T00:13:38;4.50;99.90
5711;DHT22;61291;52.524;13.422;2023-02-01T00:16:13;4.40;99.90
5711;DHT22;61291;52.524;13.422;2023-02-01T00:18:41;4.30;99.90
5711;DHT22;61291;52.524;13.422;2023-02-01T00:21:07;4.10;99.90
5711;DHT22;61291;52.524;13.422;2023-02-01T00:23:36;4.10;99.90
5711;DHT22;61291;52.524;13.422;2023-02-01T00:26:04;4.00;99.90
5711;DHT22;61291;52.524;13.422;2023-02-01T00:28:29;4.00;99.90
5711;DHT22;61291;52.524;13.422;2023-02-01T00:30:56;3.90;99.90
5711;DHT22;61291;52.524;13.422;2023-02-01T00:33:22;3.90;99.90
5711;DHT22;61291;52.524;13.422;2023-02-01T00:35:47;3.80;99.90
5711;DHT22;61291;52.524;13.422;2023-02-01T00:38:13;3.70;99.90
5711;DHT22;61291;52.524;13.422;2023-02-01T00:40:38;3.70;99.90
5711;DHT22;61291;52.524;13.422;2023-02-01T00:43:04;3.70;99.90
5711;DHT22;61291;52.524;13.422;2023-02-01T00:45:29;3.80;99.90
5711;DHT22;61291;52.524;13.422;2023-02-01T00:47:55;3.70;99.90
5711;DHT22;61291;52.524;13.422;2023-02-01T00:50:20;3.70;99.90
5711;DHT22;61291;52.524;13.422;2023-02-01T00:52:46;3.70;99.90
5711;DHT22;61291;52.524;13.422;2023-02-01T00:55:11;3.70;99.90
5711;DHT22;61291;52.524;13.422;2023-02-01T00:57:37;3.80;99.90
5711;DHT22;61291;52.524;13.422;2023-02-01T01:00:02;4.00;99.90
5711;DHT22;61291;52.524;13.422;2023-02-01T01:02:28;4.20;99.90
5711;DHT22;61291;52.524;13.422;2023-02-01T01:04:54;4.30;99.90
5711;DHT22;61291;52.524;13.422;2023-02-01T01:07:19;4.20;99.90
5711;DHT22;61291;52.524;13.422;2023-02-01T01:09:45;4.10;99.90
5711;DHT22;61291;52.524;13.422;2023-02-01T01:12:10;4.00;99.90
5711;DHT22;61291;52.524;13.422;2023-02-01T01:14:36;4.00;99.90
5711;DHT22;61291;52.524;13.422;2023-02-01T01:17:01;3.90;99.90
5711;DHT22;61291;52.524;13.422;2023-02-01T01:19:27;3.90;99.90
5711;DHT22;61291;52.524;13.422;2023-02-01T01:21:52;3.90;99.90
5711;DHT22;61291;52.524;13.422;2023-02-01T01:24:17;3.90;99.90
5711;DHT22;61291;52.524;13.422;2023-02-01T01:26:43;3.90;99.90
5711;DHT22;61291;52.524;13.422;2023-02-01T01:29:09;3.80;99.90
5711;DHT22;61291;52.524;13.422;2023-02-01T01:31:35;3.80;99.90
5711;DHT22;61291;52.524;13.422;2023-02-01T01:34:00;3.80;99.90
5711;DHT22;61291;52.524;13.422;2023-02-01T01:36:27;3.80;99.90
5711;DHT22;61291;52.524;13.422;2023-02-01T01:38:53;3.90;99.90
5711;DHT22;61291;52.524;13.422;2023-02-01T01:41:24;3.80;99.90
5711;DHT22;61291;52.524;13.422;2023-02-01T01:43:53;3.80;99.90
5711;DHT22;61291;52.524;13.422;2023-02-01T01:46:31;3.80;99.90
5711;DHT22;61291;52.524;13.422;2023-02-01T01:49:04;3.80;99.90
5711;DHT22;61291;52.524;13.422;2023-02-01T01:51:31;3.80;99.90
5711;DHT22;61291;52.524;13.422;2023-02-01T01:54:05;3.80;99.90
5711;DHT22;61291;52.524;13.422;2023-02-01T01:56:32;3.80;99.90
5711;DHT22;61291;52.524;13.422;2023-02-01T01:59:00;3.80;99.90
5711;DHT22;61291;52.524;13.422;2023-02-01T02:01:27;3.80;99.90
5711;DHT22;61291;52.524;13.422;2023-02-01T02:03:53;3.80;99.90
5711;DHT22;61291;52.524;13.422;2023-02-01T02:06:39;3.80;99.90
5711;DHT22;61291;52.524;13.422;2023-02-01T02:09:06;3.90;99.90
5711;DHT22;61291;52.524;13.422;2023-02-01T02:11:32;3.80;99.90
5711;DHT22;61291;52.524;13.422;2023-02-01T02:13:58;3.80;99.90
5711;DHT22;61291;52.524;13.422;2023-02-01T02:19:28;3.90;99.90
5711;DHT22;61291;52.524;13.422;2023-02-01T02:27:34;4.00;99.90
5711;DHT22;61291;52.524;13.422;2023-02-01T02:33:33;4.10;99.90
5711;DHT22;61291;52.524;13.422;2023-02-01T02:36:25;4.00;99.90
5711;DHT22;61291;52.524;13.422;2023-02-01T02:39:08;4.00;99.90
5711;DHT22;61291;52.524;13.422;2023-02-01T02:44:58;4.00;99.90
5711;DHT22;61291;52.524;13.422;2023-02-01T02:48:11;4.00;99.90
5711;DHT22;61291;52.524;13.422;2023-02-01T02:50:54;4.00;99.90
5711;DHT22;61291;52.524;13.422;2023-02-01T02:53:53;4.10;99.90
5711;DHT22;61291;52.524;13.422;2023-02-01T02:56:41;4.10;99.90
5711;DHT22;61291;52.524;13.422;2023-02-01T02:59:26;4.10;99.90
5711;DHT22;61291;52.524;13.422;2023-02-01T03:02:13;4.10;99.90
5711;DHT22;61291;52.524;13.422;2023-02-01T03:04:57;4.20;99.90
5711;DHT22;61291;52.524;13.422;2023-02-01T03:08:02;4.30;99.90
5711;DHT22;61291;52.524;13.422;2023-02-01T03:10:48;4.40;99.90
5711;DHT22;61291;52.524;13.422;2023-02-01T03:13:45;4.50;99.90
5711;DHT22;61291;52.524;13.422;2023-02-01T03:16:22;4.50;99.90
5711;DHT22;61291;52.524;13.422;2023-02-01T03:19:28;4.50;99.90
5711;DHT22;61291;52.524;13.422;2023-02-01T03:22:01;4.50;99.90
5711;DHT22;61291;52.524;13.422;2023-02-01T03:29:54;4.40;99.90
5711;DHT22;61291;52.524;13.422;2023-02-01T03:32:21;4.30;99.90
5711;DHT22;61291;52.524;13.422;2023-02-01T03:34:48;4.40;99.90
5711;DHT22;61291;52.524;13.422;2023-02-01T03:37:21;4.40;99.90
5711;DHT22;61291;52.524;13.422;2023-02-01T03:40:07;4.40;99.90
5711;DHT22;61291;52.524;13.422;2023-02-01T03:42:35;4.40;99.90
5711;DHT22;61291;52.524;13.422;2023-02-01T03:47:49;4.30;99.90
5711;DHT22;61291;52.524;13.422;2023-02-01T03:50:22;4.20;99.90
5711;DHT22;61291;52.524;13.422;2023-02-01T03:53:02;4.30;99.90
5711;DHT22;61291;52.524;13.422;2023-02-01T03:55:30;4.20;99.90
5711;DHT22;61291;52.524;13.422;2023-02-01T04:00:34;4.30;99.90
5711;DHT22;61291;52.524;13.422;2023-02-01T04:03:00;4.30;99.90
5711;DHT22;61291;52.524;13.422;2023-02-01T04:05:26;4.40;99.90
5711;DHT22;61291;52.524;13.422;2023-02-01T04:07:51;4.40;99.90
5711;DHT22;61291;52.524;13.422;2023-02-01T04:10:17;4.50;99.90
5711;DHT22;61291;52.524;13.422;2023-02-01T04:12:42;4.60;99.90
5711;DHT22;61291;52.524;13.422;2023-02-01T04:15:08;4.70;99.90
5711;DHT22;61291;52.524;13.422;2023-02-01T04:17:34;4.70;99.90
5711;DHT22;61291;52.524;13.422;2023-02-01T04:19:59;4.80;99.90
5711;DHT22;61291;52.524;13.422;2023-02-01T04:22:25;4.90;99.90
5711;DHT22;61291;52.524;13.422;2023-02-01T04:24:50;4.90;99.90
5711;DHT22;61291;52.524;13.422;2023-02-01T04:27:16;5.00;99.90
5711;DHT22;61291;52.524;13.422;2023-02-01T04:29:41;5.10;99.90
5711;DHT22;61291;52.524;13.422;2023-02-01T04:32:07;5.00;99.90
5711;DHT22;61291;52.524;13.422;2023-02-01T04:34:33;5.10;99.90
5711;DHT22;61291;52.524;13.422;2023-02-01T04:36:59;5.10;99.90
5711;DHT22;61291;52.524;13.422;2023-02-01T04:39:24;5.20;99.90
5711;DHT22;61291;52.524;13.422;2023-02-01T04:41:50;5.30;99.90
5711;DHT22;61291;52.524;13.422;2023-02-01T04:44:17;5.40;99.90
5711;DHT22;61291;52.524;13.422;2023-02-01T04:46:44;5.40;99.90
5711;DHT22;61291;52.524;13.422;2023-02-01T04:49:10;5.50;99.90
5711;DHT22;61291;52.524;13.422;2023-02-01T04:51:36;5.50;99.90
5711;DHT22;61291;52.524;13.422;2023-02-01T04:54:01;5.60;99.90
5711;DHT22;61291;52.524;13.422;2023-02-01T04:56:27;5.60;99.90
5711;DHT22;61291;52.524;13.422;2023-02-01T04:58:52;5.70;99.90
5711;DHT22;61291;52.524;13.422;2023-02-01T05:01:18;5.70;99.90
5711;DHT22;61291;52.524;13.422;2023-02-01T05:03:44;5.70;99.90
5711;DHT22;61291;52.524;13.422;2023-02-01T05:06:09;5.70;99.90
5711;DHT22;61291;52.524;13.422;2023-02-01T05:08:35;5.80;99.90
5711;DHT22;61291;52.524;13.422;2023-02-01T05:11:01;5.80;99.90
5711;DHT22;61291;52.524;13.422;2023-02-01T05:13:30;5.80;99.90
5711;DHT22;61291;52.524;13.422;2023-02-01T05:16:14;5.80;99.90
5711;DHT22;61291;52.524;13.422;2023-02-01T05:18:40;5.90;99.90
5711;DHT22;61291;52.524;13.422;2023-02-01T05:21:05;5.80;99.90
5711;DHT22;61291;52.524;13.422;2023-02-01T05:23:31;5.80;99.90
5711;DHT22;61291;52.524;13.422;2023-02-01T05:26:00;5.90;99.90
5711;DHT22;61291;52.524;13.422;2023-02-01T05:28:27;5.90;99.90
5711;DHT22;61291;52.524;13.422;2023-02-01T05:30:53;5.90;99.90
5711;DHT22;61291;52.524;13.422;2023-02-01T05:33:19;5.90;99.90
5711;DHT22;61291;52.524;13.422;2023-02-01T05:35:44;5.90;99.90
5711;DHT22;61291;52.524;13.422;2023-02-01T05:38:10;5.90;99.90
5711;DHT22;61291;52.524;13.422;2023-02-01T05:40:35;5.90;99.90
5711;DHT22;61291;52.524;13.422;2023-02-01T05:43:00;5.90;99.90
5711;DHT22;61291;52.524;13.422;2023-02-01T05:45:26;5.90;99.90
5711;DHT22;61291;52.524;13.422;2023-02-01T05:47:51;5.90;99.90
5711;DHT22;61291;52.524;13.422;2023-02-01T05:50:17;5.90;99.90
5711;DHT22;61291;52.524;13.422;2023-02-01T05:52:43;6.00;99.90
5711;DHT22;61291;52.524;13.422;2023-02-01T05:55:08;5.90;99.90
5711;DHT22;61291;52.524;13.422;2023-02-01T05:57:34;5.90;99.90
5711;DHT22;61291;52.524;13.422;2023-02-01T05:59:59;5.90;99.90
5711;DHT22;61291;52.524;13.422;2023-02-01T06:02:25;6.00;99.90
5711;DHT22;61291;52.524;13.422;2023-02-01T06:04:51;5.90;99.90
5711;DHT22;61291;52.524;13.422;2023-02-01T06:07:16;6.00;99.90
5711;DHT22;61291;52.524;13.422;2023-02-01T06:09:42;6.00;99.90
5711;DHT22;61291;52.524;13.422;2023-02-01T06:12:07;6.00;99.90
5711;DHT22;61291;52.524;13.422;2023-02-01T06:14:33;6.00;99.90
5711;DHT22;61291;52.524;13.422;2023-02-01T06:16:59;6.00;99.90
5711;DHT22;61291;52.524;13.422;2023-02-01T06:19:24;6.00;99.90
5711;DHT22;61291;52.524;13.422;2023-02-01T06:21:50;6.00;99.90
5711;DHT22;61291;52.524;13.422;2023-02-01T06:24:15;5.90;99.90
5711;DHT22;61291;52.524;13.422;2023-02-01T06:26:41;5.90;99.90
5711;DHT22;61291;52.524;13.422;2023-02-01T06:29:07;6.00;99.90
5711;DHT22;61291;52.524;13.422;2023-02-01T06:31:33;5.90;99.90
5711;DHT22;61291;52.524;13.422;2023-02-01T06:33:58;5.80;99.90
5711;DHT22;61291;52.524;13.422;2023-02-01T06:36:24;5.80;99.90
5711;DHT22;61291;52.524;13.422;2023-02-01T06:38:49;5.80;99.90
5711;DHT22;61291;52.524;13.422;2023-02-01T06:41:16;5.70;99.90
5711;DHT22;61291;52.524;13.422;2023-02-01T06:43:42;5.70;99.90
5711;DHT22;61291;52.524;13.422;2023-02-01T06:46:11;5.60;99.90
5711;DHT22;61291;52.524;13.422;2023-02-01T06:48:37;5.70;99.90
5711;DHT22;61291;52.524;13.422;2023-02-01T06:51:03;5.60;99.90
5711;DHT22;61291;52.524;13.422;2023-02-01T06:53:29;5.60;99.90
5711;DHT22;61291;52.524;13.422;2023-02-01T06:55:59;5.60;99.90
5711;DHT22;61291;52.524;13.422;2023-02-01T06:58:28;5.60;99.90
5711;DHT22;61291;52.524;13.422;2023-02-01T07:00:53;5.60;99.90
5711;DHT22;61291;52.524;13.422;2023-02-01T07:03:19;5.60;99.90
5711;DHT22;61291;52.524;13.422;2023-02-01T07:05:45;5.60;99.90
5711;DHT22;61291;52.524;13.422;2023-02-01T07:08:10;5.60;99.90
5711;DHT22;61291;52.524;13.422;2023-02-01T07:10:36;5.60;99.90
5711;DHT22;61291;52.524;13.422;2023-02-01T07:13:02;5.60;99.90
5711;DHT22;61291;52.524;13.422;2023-02-01T07:15:27;5.70;99.90
5711;DHT22;61291;52.524;13.422;2023-02-01T07:17:56;5.70;99.90
5711;DHT22;61291;52.524;13.422;2023-02-01T07:20:22;5.80;99.90
5711;DHT22;61291;52.524;13.422;2023-02-01T07:22:47;5.70;99.90
5711;DHT22;61291;52.524;13.422;2023-02-01T07:25:13;5.80;99.90
5711;DHT22;61291;52.524;13.422;2023-02-01T07:27:39;5.80;99.90
5711;DHT22;61291;52.524;13.422;2023-02-01T07:30:05;5.80;99.90
5711;DHT22;61291;52.524;13.422;2023-02-01T07:32:31;5.80;99.90
5711;DHT22;61291;52.524;13.422;2023-02-01T07:34:58;5.80;99.90
5711;DHT22;61291;52.524;13.422;2023-02-01T07:37:24;6.00;99.90
5711;DHT22;61291;52.524;13.422;2023-02-01T07:39:51;6.30;99.90
5711;DHT22;61291;52.524;13.422;2023-02-01T07:42:17;6.30;99.90
5711;DHT22;61291;52.524;13.422;2023-02-01T07:44:43;6.30;99.90
5711;DHT22;61291;52.524;13.422;2023-02-01T07:47:08;6.20;99.90
5711;DHT22;61291;52.524;13.422;2023-02-01T07:49:34;6.20;99.90
5711;DHT22;61291;52.524;13.422;2023-02-01T07:51:59;6.10;99.90
5711;DHT22;61291;52.524;13.422;2023-02-01T07:54:25;6.10;99.90
5711;DHT22;61291;52.524;13.422;2023-02-01T07:56:50;6.00;99.90
5711;DHT22;61291;52.524;13.422;2023-02-01T07:59:16;5.90;99.90
5711;DHT22;61291;52.524;13.422;2023-02-01T08:01:42;5.80;99.90
5711;DHT22;61291;52.524;13.422;2023-02-01T08:04:10;5.60;99.90
5711;DHT22;61291;52.524;13.422;2023-02-01T08:06:37;5.60;99.90
5711;DHT22;61291;52.524;13.422;2023-02-01T08:09:03;5.50;99.90
5711;DHT22;61291;52.524;13.422;2023-02-01T08:11:30;5.40;99.90
5711;DHT22;61291;52.524;13.422;2023-02-01T08:13:56;5.30;99.90
5711;DHT22;61291;52.524;13.422;2023-02-01T08:16:22;5.20;99.90
5711;DHT22;61291;52.524;13.422;2023-02-01T08:18:48;5.10;99.90
5711;DHT22;61291;52.524;13.422;2023-02-01T08:21:16;5.10;99.90
5711;DHT22;61291;52.524;13.422;2023-02-01T08:23:43;5.10;99.90
5711;DHT22;61291;52.524;13.422;2023-02-01T08:26:11;5.10;99.90
5711;DHT22;61291;52.524;13.422;2023-02-01T08:28:38;5.10;99.90
5711;DHT22;61291;52.524;13.422;2023-02-01T08:31:16;5.10;99.90
5711;DHT22;61291;52.524;13.422;2023-02-01T08:33:43;5.20;99.90
5711;DHT22;61291;52.524;13.422;2023-02-01T08:36:10;5.20;99.90
5711;DHT22;61291;52.524;13.422;2023-02-01T08:38:38;5.10;99.90
5711;DHT22;61291;52.524;13.422;2023-02-01T08:41:09;5.10;99.90
5711;DHT22;61291;52.524;13.422;2023-02-01T08:43:35;5.00;99.90
5711;DHT22;61291;52.524;13.422;2023-02-01T08:46:01;5.10;99.90
5711;DHT22;61291;52.524;13.422;2023-02-01T08:48:27;5.10;99.90
5711;DHT22;61291;52.524;13.422;2023-02-01T08:50:52;5.20;99.90
5711;DHT22;61291;52.524;13.422;2023-02-01T08:53:18;5.20;99.90
5711;DHT22;61291;52.524;13.422;2023-02-01T08:55:45;5.10;99.90
5711;DHT22;61291;52.524;13.422;2023-02-01T08:58:11;5.10;99.90
5711;DHT22;61291;52.524;13.422;2023-02-01T09:00:36;5.20;99.90
5711;DHT22;61291;52.524;13.422;2023-02-01T09:03:02;5.20;99.90
5711;DHT22;61291;52.524;13.422;2023-02-01T09:05:28;5.20;99.90
5711;DHT22;61291;52.524;13.422;2023-02-01T09:07:53;5.20;99.90
5711;DHT22;61291;52.524;13.422;2023-02-01T09:10:19;5.30;99.90
5711;DHT22;61291;52.524;13.422;2023-02-01T09:12:44;5.30;99.90
5711;DHT22;61291;52.524;13.422;2023-02-01T09:15:10;5.40;99.90
5711;DHT22;61291;52.524;13.422;2023-02-01T09:17:35;5.50;99.90
5711;DHT22;61291;52.524;13.422;2023-02-01T09:20:01;5.60;99.90
5711;DHT22;61291;52.524;13.422;2023-02-01T09:22:27;5.60;99.90
5711;DHT22;61291;52.524;13.422;2023-02-01T09:24:53;5.80;99.90
5711;DHT22;61291;52.524;13.422;2023-02-01T09:27:18;6.10;99.90
5711;DHT22;61291;52.524;13.422;2023-02-01T09:29:44;6.10;99.90
5711;DHT22;61291;52.524;13.422;2023-02-01T09:32:09;6.10;99.90
5711;DHT22;61291;52.524;13.422;2023-02-01T09:34:35;6.00;99.90
5711;DHT22;61291;52.524;13.422;2023-02-01T09:37:01;6.00;99.90
5711;DHT22;61291;52.524;13.422;2023-02-01T09:39:27;5.90;99.90
5711;DHT22;61291;52.524;13.422;2023-02-01T09:42:18;5.90;99.90
5711;DHT22;61291;52.524;13.422;2023-02-01T09:47:41;5.70;99.90
5711;DHT22;61291;52.524;13.422;2023-02-01T09:50:16;5.80;99.90
5711;DHT22;61291;52.524;13.422;2023-02-01T09:53:02;5.80;99.90
5711;DHT22;61291;52.524;13.422;2023-02-01T09:55:38;5.90;99.90
5711;DHT22;61291;52.524;13.422;2023-02-01T10:00:38;6.20;99.90
5711;DHT22;61291;52.524;13.422;2023-02-01T10:03:05;6.30;99.90
5711;DHT22;61291;52.524;13.422;2023-02-01T10:10:49;6.30;99.90
5711;DHT22;61291;52.524;13.422;2023-02-01T10:13:29;6.20;99.90
5711;DHT22;61291;52.524;13.422;2023-02-01T10:16:10;6.10;99.90
5711;DHT22;61291;52.524;13.422;2023-02-01T10:18:51;6.00;99.90
5711;DHT22;61291;52.524;13.422;2023-02-01T10:21:52;6.00;99.90
5711;DHT22;61291;52.524;13.422;2023-02-01T10:24:36;5.90;99.90
5711;DHT22;61291;52.524;13.422;2023-02-01T10:27:07;5.80;99.90
5711;DHT22;61291;52.524;13.422;2023-02-01T10:29:38;5.80;99.90
5711;DHT22;61291;52.524;13.422;2023-02-01T10:32:12;5.90;99.90
5711;DHT22;61291;52.524;13.422;2023-02-01T10:34:38;5.80;99.90
5711;DHT22;61291;52.524;13.422;2023-02-01T10:37:39;6.00;99.90
5711;DHT22;61291;52.524;13.422;2023-02-01T10:42:39;6.80;99.90
5711;DHT22;61291;52.524;13.422;2023-02-01T10:45:05;7.00;99.90
5711;DHT22;61291;52.524;13.422;2023-02-01T10:47:31;7.00;99.90
5711;DHT22;61291;52.524;13.422;2023-02-01T10:53:21;6.50;99.90
5711;DHT22;61291;52.524;13.422;2023-02-01T10:55:50;6.40;99.90
5711;DHT22;61291;52.524;13.422;2023-02-01T10:58:19;6.30;99.90
5711;DHT22;61291;52.524;13.422;2023-02-01T11:00:56;6.30;99.90
5711;DHT22;61291;52.524;13.422;2023-02-01T11:06:08;6.10;99.90
5711;DHT22;61291;52.524;13.422;2023-02-01T11:08:45;6.10;99.90
5711;DHT22;61291;52.524;13.422;2023-02-01T11:11:11;6.10;99.90
5711;DHT22;61291;52.524;13.422;2023-02-01T11:13:38;6.30;99.90
5711;DHT22;61291;52.524;13.422;2023-02-01T11:16:05;6.50;99.90
5711;DHT22;61291;52.524;13.422;2023-02-01T11:18:35;6.60;99.90
5711;DHT22;61291;52.524;13.422;2023-02-01T11:21:01;6.70;99.90
5711;DHT22;61291;52.524;13.422;2023-02-01T11:23:29;6.80;99.90
5711;DHT22;61291;52.524;13.422;2023-02-01T11:25:57;7.00;99.90
5711;DHT22;61291;52.524;13.422;2023-02-01T11:28:25;7.30;99.90
5711;DHT22;61291;52.524;13.422;2023-02-01T11:30:53;7.50;99.90
5711;DHT22;61291;52.524;13.422;2023-02-01T11:33:24;7.40;99.90
5711;DHT22;61291;52.524;13.422;2023-02-01T11:35:51;7.40;99.90
5711;DHT22;61291;52.524;13.422;2023-02-01T11:38:27;7.70;99.90
5711;DHT22;61291;52.524;13.422;2023-02-01T11:40:52;8.10;99.90
5711;DHT22;61291;52.524;13.422;2023-02-01T11:43:27;8.30;99.90
5711;DHT22;61291;52.524;13.422;2023-02-01T11:48:25;8.10;99.90
5711;DHT22;61291;52.524;13.422;2023-02-01T11:51:19;8.00;99.90
5711;DHT22;61291;52.524;13.422;2023-02-01T11:54:08;8.10;99.90
5711;DHT22;61291;52.524;13.422;2023-02-01T11:59:37;8.30;99.90
5711;DHT22;61291;52.524;13.422;2023-02-01T12:02:33;8.50;99.90
5711;DHT22;61291;52.524;13.422;2023-02-01T12:05:14;8.60;99.90
5711;DHT22;61291;52.524;13.422;2023-02-01T12:10:54;8.60;99.90
5711;DHT22;61291;52.524;13.422;2023-02-01T12:13:41;9.00;99.90
5711;DHT22;61291;52.524;13.422;2023-02-01T12:16:28;9.00;99.90
5711;DHT22;61291;52.524;13.422;2023-02-01T12:21:53;8.90;99.90
5711;DHT22;61291;52.524;13.422;2023-02-01T12:24:29;8.70;99.90
5711;DHT22;61291;52.524;13.422;2023-02-01T12:30:02;8.80;99.90
5711;DHT22;61291;52.524;13.422;2023-02-01T12:38:11;7.80;99.90
5711;DHT22;61291;52.524;13.422;2023-02-01T12:41:13;7.60;99.90
5711;DHT22;61291;52.524;13.422;2023-02-01T12:43:43;7.50;99.90
5711;DHT22;61291;52.524;13.422;2023-02-01T12:46:15;7.40;99.90
5711;DHT22;61291;52.524;13.422;2023-02-01T12:48:58;7.20;99.90
5711;DHT22;61291;52.524;13.422;2023-02-01T12:51:33;7.30;99.90
5711;DHT22;61291;52.524;13.422;2023-02-01T12:54:15;7.40;99.90
5711;DHT22;61291;52.524;13.422;2023-02-01T12:56:48;7.50;99.90
5711;DHT22;61291;52.524;13.422;2023-02-01T12:59:21;7.70;99.90
5711;DHT22;61291;52.524;13.422;2023-02-01T13:01:58;7.90;99.90
5711;DHT22;61291;52.524;13.422;2023-02-01T13:04:33;8.20;99.90
5711;DHT22;61291;52.524;13.422;2023-02-01T13:07:21;8.30;99.90
5711;DHT22;61291;52.524;13.422;2023-02-01T13:10:15;8.50;99.90
5711;DHT22;61291;52.524;13.422;2023-02-01T13:12:51;8.60;99.90
5711;DHT22;61291;52.524;13.422;2023-02-01T13:15:36;8.70;99.90
5711;DHT22;61291;52.524;13.422;2023-02-01T13:18:05;8.70;99.90
5711;DHT22;61291;52.524;13.422;2023-02-01T13:20:42;8.70;99.90
5711;DHT22;61291;52.524;13.422;2023-02-01T13:25:50;8.40;99.90
5711;DHT22;61291;52.524;13.422;2023-02-01T13:28:24;8.10;99.90
5711;DHT22;61291;52.524;13.422;2023-02-01T13:31:32;8.20;99.90
5711;DHT22;61291;52.524;13.422;2023-02-01T13:37:28;8.30;99.90
5711;DHT22;61291;52.524;13.422;2023-02-01T13:42:52;8.30;99.90
5711;DHT22;61291;52.524;13.422;2023-02-01T13:45:24;8.20;99.90
5711;DHT22;61291;52.524;13.422;2023-02-01T13:47:53;8.30;99.90
5711;DHT22;61291;52.524;13.422;2023-02-01T13:50:34;8.30;99.90
5711;DHT22;61291;52.524;13.422;2023-02-01T13:55:46;8.30;99.90
5711;DHT22;61291;52.524;13.422;2023-02-01T13:58:35;8.20;99.90
5711;DHT22;61291;52.524;13.422;2023-02-01T14:01:32;8.30;99.90
5711;DHT22;61291;52.524;13.422;2023-02-01T14:04:05;8.30;99.90
5711;DHT22;61291;52.524;13.422;2023-02-01T14:09:19;8.10;99.90
5711;DHT22;61291;52.524;13.422;2023-02-01T14:11:55;8.20;99.90
5711;DHT22;61291;52.524;13.422;2023-02-01T14:19:24;7.60;99.90
5711;DHT22;61291;52.524;13.422;2023-02-01T14:21:55;7.20;99.90
5711;DHT22;61291;52.524;13.422;2023-02-01T14:26:56;6.90;99.90
5711;DHT22;61291;52.524;13.422;2023-02-01T14:29:31;6.90;99.90
5711;DHT22;61291;52.524;13.422;2023-02-01T14:32:19;6.90;99.90
5711;DHT22;61291;52.524;13.422;2023-02-01T14:37:30;6.80;99.90
5711;DHT22;61291;52.524;13.422;2023-02-01T14:47:45;6.90;99.90
5711;DHT22;61291;52.524;13.422;2023-02-01T14:55:49;6.80;99.90
5711;DHT22;61291;52.524;13.422;2023-02-01T15:00:55;6.80;99.90
5711;DHT22;61291;52.524;13.422;2023-02-01T15:09:25;6.80;99.90
5711;DHT22;61291;52.524;13.422;2023-02-01T15:14:32;6.70;99.90
5711;DHT22;61291;52.524;13.422;2023-02-01T15:16:57;6.70;99.90
5711;DHT22;61291;52.524;13.422;2023-02-01T15:19:28;6.60;99.90
5711;DHT22;61291;52.524;13.422;2023-02-01T15:21:57;6.70;99.90
5711;DHT22;61291;52.524;13.422;2023-02-01T15:24:25;6.60;99.90
5711;DHT22;61291;52.524;13.422;2023-02-01T15:26:52;6.60;99.90
5711;DHT22;61291;52.524;13.422;2023-02-01T15:29:20;6.50;99.90
5711;DHT22;61291;52.524;13.422;2023-02-01T15:31:50;6.30;99.90
5711;DHT22;61291;52.524;13.422;2023-02-01T15:34:17;6.30;99.90
5711;DHT22;61291;52.524;13.422;2023-02-01T15:36:44;6.10;99.90
5711;DHT22;61291;52.524;13.422;2023-02-01T15:39:25;6.00;99.90
5711;DHT22;61291;52.524;13.422;2023-02-01T15:42:08;5.90;99.90
5711;DHT22;61291;52.524;13.422;2023-02-01T15:44:44;5.70;99.90
5711;DHT22;61291;52.524;13.422;2023-02-01T15:47:20;5.70;99.90
5711;DHT22;61291;52.524;13.422;2023-02-01T15:49:49;5.40;99.90
5711;DHT22;61291;52.524;13.422;2023-02-01T15:52:25;5.30;99.90
5711;DHT22;61291;52.524;13.422;2023-02-01T15:54:56;5.20;99.90
5711;DHT22;61291;52.524;13.422;2023-02-01T15:57:30;5.00;99.90
5711;DHT22;61291;52.524;13.422;2023-02-01T15:59:58;5.00;99.90
5711;DHT22;61291;52.524;13.422;2023-02-01T16:02:27;4.90;99.90
5711;DHT22;61291;52.524;13.422;2023-02-01T16:04:52;4.90;99.90
5711;DHT22;61291;52.524;13.422;2023-02-01T16:07:30;4.60;99.90
5711;DHT22;61291;52.524;13.422;2023-02-01T16:09:58;4.50;99.90
5711;DHT22;61291;52.524;13.422;2023-02-01T16:12:33;4.40;99.90
5711;DHT22;61291;52.524;13.422;2023-02-01T16:15:03;4.40;99.90
5711;DHT22;61291;52.524;13.422;2023-02-01T16:17:29;4.30;99.90
5711;DHT22;61291;52.524;13.422;2023-02-01T16:19:55;4.20;99.90
5711;DHT22;61291;52.524;13.422;2023-02-01T16:22:22;4.20;99.90
5711;DHT22;61291;52.524;13.422;2023-02-01T16:24:48;4.20;99.90
5711;DHT22;61291;52.524;13.422;2023-02-01T16:27:13;4.20;99.90
5711;DHT22;61291;52.524;13.422;2023-02-01T16:29:39;4.10;99.90
5711;DHT22;61291;52.524;13.422;2023-02-01T16:32:04;4.10;99.90
5711;DHT22;61291;52.524;13.422;2023-02-01T16:34:30;4.00;99.90
5711;DHT22;61291;52.524;13.422;2023-02-01T16:36:56;4.00;99.90
5711;DHT22;61291;52.524;13.422;2023-02-01T16:39:22;4.00;99.90
5711;DHT22;61291;52.524;13.422;2023-02-01T16:41:48;4.00;99.90
5711;DHT22;61291;52.524;13.422;2023-02-01T16:44:14;3.90;99.90
5711;DHT22;61291;52.524;13.422;2023-02-01T16:46:42;4.00;99.90
5711;DHT22;61291;52.524;13.422;2023-02-01T16:49:20;4.00;99.90
5711;DHT22;61291;52.524;13.422;2023-02-01T16:51:48;4.00;99.90
5711;DHT22;61291;52.524;13.422;2023-02-01T16:54:14;4.00;99.90
5711;DHT22;61291;52.524;13.422;2023-02-01T16:56:41;4.00;99.90
5711;DHT22;61291;52.524;13.422;2023-02-01T16:59:07;4.00;99.90
5711;DHT22;61291;52.524;13.422;2023-02-01T17:01:34;4.00;99.90
5711;DHT22;61291;52.524;13.422;2023-02-01T17:03:59;4.00;99.90
5711;DHT22;61291;52.524;13.422;2023-02-01T17:06:26;4.00;99.90
5711;DHT22;61291;52.524;13.422;2023-02-01T17:08:54;4.10;99.90
5711;DHT22;61291;52.524;13.422;2023-02-01T17:11:21;4.00;99.90
5711;DHT22;61291;52.524;13.422;2023-02-01T17:13:46;4.10;99.90
5711;DHT22;61291;52.524;13.422;2023-02-01T17:16:23;4.10;99.90
5711;DHT22;61291;52.524;13.422;2023-02-01T17:19:13;4.10;99.90
5711;DHT22;61291;52.524;13.422;2023-02-01T17:21:47;4.20;99.90
5711;DHT22;61291;52.524;13.422;2023-02-01T17:24:16;4.10;99.90
5711;DHT22;61291;52.524;13.422;2023-02-01T17:26:42;4.20;99.90
5711;DHT22;61291;52.524;13.422;2023-02-01T17:29:08;4.20;99.90
5711;DHT22;61291;52.524;13.422;2023-02-01T17:31:38;4.20;99.90
5711;DHT22;61291;52.524;13.422;2023-02-01T17:34:04;4.30;99.90
5711;DHT22;61291;52.524;13.422;2023-02-01T17:36:30;4.40;99.90
5711;DHT22;61291;52.524;13.422;2023-02-01T17:38:55;4.30;99.90
5711;DHT22;61291;52.524;13.422;2023-02-01T17:41:21;4.40;99.90
5711;DHT22;61291;52.524;13.422;2023-02-01T17:43:48;4.50;99.90
5711;DHT22;61291;52.524;13.422;2023-02-01T17:46:16;4.40;99.90
5711;DHT22;61291;52.524;13.422;2023-02-01T17:48:43;4.50;99.90
5711;DHT22;61291;52.524;13.422;2023-02-01T17:51:15;4.40;99.90
5711;DHT22;61291;52.524;13.422;2023-02-01T17:53:41;4.50;99.90
5711;DHT22;61291;52.524;13.422;2023-02-01T17:56:15;4.50;99.90
5711;DHT22;61291;52.524;13.422;2023-02-01T17:58:41;4.50;99.90